Time;durP1;ratioP1;P1;durP2;ratioP2;P2;SDS_P1;SDS_P2;PMS_P1;PMS_P2;Temp;Humidity;BMP_temperature;BMP_pressure;BME280_temperature;BME280_humidity;BME280_pressure;Samples;Min_cycle;Max_cycle;Signal;HPM_P1;HPM_P2
2022/10/16 00:01:35;;;;;;;34.50;19.50;;;;;;;12.80;74.27;98999.95;86095;1284;25567;-75
2022/10/16 00:03:42;;;;;;;24.50;19.10;;;;;;;12.80;74.19;99003.85;85748;1294;99386;-74
2022/10/16 00:05:44;;;;;;;32.50;19.30;;;;;;;12.81;74.14;99004.67;86108;1286;22602;-74
2022/10/16 00:07:48;;;;;;;33.10;20.00;;;;;;;12.81;74.27;99004.17;85969;1292;22536;-75
2022/10/16 00:09:50;;;;;;;25.00;19.90;;;;;;;12.81;74.48;99005.20;85785;1285;99382;-74
2022/10/16 00:11:52;;;;;;;23.20;19.30;;;;;;;12.79;74.47;99003.89;86001;1290;22664;-74
2022/10/16 00:14:05;;;;;;;24.60;18.80;;;;;;;12.80;74.48;99006.16;85981;1296;22739;-75
2022/10/16 00:16:09;;;;;;;26.90;19.90;;;;;;;12.79;74.45;99004.40;86048;1288;98052;-74
2022/10/16 00:18:11;;;;;;;28.60;19.70;;;;;;;12.80;74.34;99008.78;86020;1294;22533;-74
2022/10/16 00:20:13;;;;;;;26.50;19.00;;;;;;;12.80;74.44;99018.33;86080;1291;26583;-75
2022/10/16 00:22:15;;;;;;;24.80;18.80;;;;;;;12.80;74.50;99019.19;86047;1289;99222;-74
2022/10/16 00:24:17;;;;;;;29.40;18.80;;;;;;;12.77;74.51;99018.11;85975;1291;23315;-74
2022/10/16 00:26:23;;;;;;;31.30;19.90;;;;;;;12.79;74.50;99019.73;86077;1289;23305;-74
2022/10/16 00:28:25;;;;;;;30.70;20.60;;;;;;;12.79;74.42;99019.58;85778;1291;98155;-74
2022/10/16 00:30:28;;;;;;;31.60;20.70;;;;;;;12.77;74.31;99023.19;85987;1291;22591;-74
2022/10/16 00:32:30;;;;;;;32.20;20.90;;;;;;;12.76;74.44;99027.48;86074;1290;22546;-75
2022/10/16 00:34:32;;;;;;;29.90;20.20;;;;;;;12.74;74.52;99025.16;85860;1290;98188;-74
2022/10/16 00:36:34;;;;;;;29.80;21.60;;;;;;;12.75;74.61;99026.52;86014;1283;22437;-74
2022/10/16 00:38:37;;;;;;;29.70;21.30;;;;;;;12.74;74.46;99027.42;86070;1287;23978;-74
2022/10/16 00:40:40;;;;;;;33.10;22.10;;;;;;;12.74;74.73;99031.15;86111;1297;99507;-74
2022/10/16 00:42:45;;;;;;;28.60;20.50;;;;;;;12.73;74.79;99035.40;85984;1291;23079;-74
2022/10/16 00:44:56;;;;;;;34.10;21.40;;;;;;;12.74;74.74;99035.19;86066;1290;22619;-74
2022/10/16 00:46:58;;;;;;;32.40;21.40;;;;;;;12.73;74.83;99035.05;85886;1290;99275;-75
2022/10/16 00:49:05;;;;;;;39.10;22.40;;;;;;;12.71;74.91;99037.13;85803;1290;22970;-74
2022/10/16 00:51:11;;;;;;;35.00;22.30;;;;;;;12.70;74.91;99036.86;85604;1294;22500;-74
2022/10/16 00:53:14;;;;;;;37.90;24.40;;;;;;;12.70;75.10;99038.96;85970;1288;100291;-75
2022/10/16 00:55:18;;;;;;;31.90;23.70;;;;;;;12.70;75.08;99033.52;85956;1291;22505;-73
2022/10/16 00:57:21;;;;;;;34.80;23.80;;;;;;;12.70;75.06;99034.05;86268;1291;24263;-74
2022/10/16 00:59:45;;;;;;;38.90;24.40;;;;;;;12.70;75.17;99035.95;85841;1289;99055;-75
2022/10/16 01:01:48;;;;;;;36.70;24.30;;;;;;;12.64;75.04;99027.12;85841;1283;24900;-74
2022/10/16 01:03:49;;;;;;;31.60;22.20;;;;;;;12.70;75.08;99038.05;86028;1287;99310;-74
2022/10/16 01:06:07;;;;;;;34.00;23.40;;;;;;;12.71;75.22;99038.19;86033;1289;25374;-75
2022/10/16 01:08:18;;;;;;;37.80;23.00;;;;;;;12.69;75.10;99036.36;85883;1293;22678;-74
2022/10/16 01:10:32;;;;;;;33.10;23.60;;;;;;;12.71;75.22;99039.98;85940;1290;99385;-75
2022/10/16 01:12:50;;;;;;;34.50;22.50;;;;;;;12.71;75.23;99041.56;85870;1289;22607;-74
2022/10/16 01:15:26;;;;;;;32.70;22.60;;;;;;;12.70;75.17;99040.17;85774;1291;23656;-73
2022/10/16 01:17:37;;;;;;;32.60;23.10;;;;;;;12.69;75.20;99043.92;85754;1289;99958;-74
2022/10/16 01:20:04;;;;;;;29.40;21.80;;;;;;;12.69;75.17;99044.10;85727;1292;22558;-74
2022/10/16 01:22:09;;;;;;;39.10;23.10;;;;;;;12.68;75.31;99039.43;85984;1287;99242;-74
2022/10/16 01:24:14;;;;;;;33.00;23.50;;;;;;;12.66;75.20;99047.44;85979;1283;22852;-75
2022/10/16 01:26:28;;;;;;;30.60;22.50;;;;;;;12.67;75.17;99047.91;86176;1286;22515;-74
2022/10/16 01:28:39;;;;;;;38.10;21.40;;;;;;;12.68;75.30;99036.09;85971;1286;98006;-74
2022/10/16 01:30:43;;;;;;;30.30;22.40;;;;;;;12.62;75.24;99035.53;85966;1291;25055;-74
2022/10/16 01:33:05;;;;;;;36.00;22.20;;;;;;;12.64;75.19;99047.06;85841;1291;22514;-74
2022/10/16 01:35:24;;;;;;;33.20;21.60;;;;;;;12.64;75.30;99049.33;85879;1291;99395;-75
2022/10/16 01:37:35;;;;;;;32.50;20.70;;;;;;;12.65;75.41;99050.18;86117;1287;24259;-74
2022/10/16 01:39:40;;;;;;;31.30;21.40;;;;;;;12.65;75.41;99047.67;86116;1289;22528;-75
2022/10/16 01:41:47;;;;;;;26.60;21.10;;;;;;;12.67;75.34;99049.20;85981;1293;98112;-74
2022/10/16 01:44:02;;;;;;;28.90;21.50;;;;;;;12.66;75.34;99044.98;85976;1290;22497;-75
2022/10/16 01:46:06;;;;;;;32.10;20.60;;;;;;;12.61;75.58;99033.13;85867;1291;98029;-75
2022/10/16 01:48:12;;;;;;;23.90;19.70;;;;;;;12.68;75.54;99047.73;85895;1291;22566;-75
2022/10/16 01:50:16;;;;;;;28.90;21.80;;;;;;;12.69;75.48;99049.22;86038;1291;22468;-76
2022/10/16 01:52:23;;;;;;;29.20;20.20;;;;;;;12.70;75.51;99046.55;85840;1293;99510;-74
2022/10/16 01:54:30;;;;;;;28.30;20.70;;;;;;;12.71;75.58;99047.01;86177;1289;22532;-75
2022/10/16 01:56:34;;;;;;;36.60;20.70;;;;;;;12.70;75.52;99052.90;85931;1290;22642;-75
2022/10/16 01:58:46;;;;;;;38.40;20.80;;;;;;;12.66;75.55;99055.75;85899;1287;99335;-74
2022/10/16 02:00:50;;;;;;;32.00;20.80;;;;;;;12.62;75.67;99058.27;86095;1296;22498;-74
2022/10/16 02:02:55;;;;;;;30.80;20.80;;;;;;;12.58;75.63;99056.02;85969;1291;22566;-74
2022/10/16 02:05:20;;;;;;;30.10;21.40;;;;;;;12.57;75.81;99055.71;85960;1291;99277;-75
2022/10/16 02:07:22;;;;;;;43.40;23.70;;;;;;;12.57;75.68;99055.35;86012;1289;22596;-74
2022/10/16 02:09:24;;;;;;;32.10;23.70;;;;;;;12.57;75.89;99053.58;85927;1289;22499;-73
2022/10/16 02:11:26;;;;;;;33.70;23.30;;;;;;;12.59;75.84;99052.77;85952;1288;100892;-73
2022/10/16 02:13:37;;;;;;;37.60;24.60;;;;;;;12.52;75.84;99043.83;86084;1280;22587;-75
2022/10/16 02:15:39;;;;;;;35.00;24.80;;;;;;;12.57;75.86;99056.58;85935;1284;22504;-74
2022/10/16 02:17:41;;;;;;;42.20;25.20;;;;;;;12.56;76.02;99055.92;85710;1285;100716;-75
2022/10/16 02:19:45;;;;;;;40.10;26.70;;;;;;;12.53;75.89;99056.65;85818;1290;26531;-74
2022/10/16 02:21:53;;;;;;;44.00;26.80;;;;;;;12.47;75.93;99053.45;85781;1283;99802;-73
2022/10/16 02:24:08;;;;;;;47.00;25.80;;;;;;;12.45;75.98;99053.70;86023;1290;22485;-73
2022/10/16 02:26:15;;;;;;;48.60;27.20;;;;;;;12.43;75.87;99056.66;86060;1291;22537;-74
2022/10/16 02:28:22;;;;;;;44.50;27.70;;;;;;;12.42;76.07;99053.87;86094;1290;99344;-74
2022/10/16 02:31:00;;;;;;;46.20;26.50;;;;;;;12.40;76.12;99056.09;86222;1287;22490;-74
2022/10/16 02:33:05;;;;;;;45.40;26.30;;;;;;;12.43;75.96;99060.17;85947;1291;25300;-75
2022/10/16 02:35:08;;;;;;;41.30;26.40;;;;;;;12.43;76.07;99059.98;85817;1297;100051;-74
2022/10/16 02:37:10;;;;;;;35.20;24.80;;;;;;;12.43;76.15;99058.91;85936;1289;22594;-74
2022/10/16 02:39:13;;;;;;;42.70;24.80;;;;;;;12.44;76.04;99061.33;86084;1289;22511;-74
2022/10/16 02:41:15;;;;;;;42.10;24.80;;;;;;;12.44;75.93;99059.57;85830;1284;99378;-74
2022/10/16 02:43:18;;;;;;;40.10;24.90;;;;;;;12.44;75.91;99063.27;86020;1289;22812;-74
2022/10/16 02:45:21;;;;;;;41.60;25.10;;;;;;;12.46;76.02;99064.80;85884;1283;22744;-74
2022/10/16 02:47:23;;;;;;;35.30;25.30;;;;;;;12.45;75.89;99063.76;85953;1289;98092;-74
2022/10/16 02:49:25;;;;;;;35.20;23.40;;;;;;;12.45;75.79;99057.59;86043;1284;25305;-75
2022/10/16 02:51:27;;;;;;;34.70;25.10;;;;;;;12.44;75.84;99059.05;86096;1290;25402;-75
2022/10/16 02:53:28;;;;;;;35.80;23.90;;;;;;;12.43;75.85;99057.02;85987;1289;99319;-75
2022/10/16 02:55:30;;;;;;;40.20;24.60;;;;;;;12.42;75.94;99058.98;85835;1283;26316;-75
2022/10/16 02:57:32;;;;;;;37.00;25.00;;;;;;;12.40;75.88;99062.10;86059;1290;22493;-75
2022/10/16 02:59:33;;;;;;;37.40;26.10;;;;;;;12.38;75.79;99058.67;85915;1289;99341;-74
2022/10/16 03:01:36;;;;;;;38.70;25.10;;;;;;;12.37;75.97;99059.98;86041;1290;22506;-75
2022/10/16 03:03:39;;;;;;;42.50;23.80;;;;;;;12.30;76.01;99058.05;85871;1291;24293;-73
2022/10/16 03:05:43;;;;;;;34.50;24.00;;;;;;;12.33;75.91;99067.23;85977;1284;99047;-74
2022/10/16 03:07:45;;;;;;;32.30;23.70;;;;;;;12.30;76.09;99066.69;86300;1288;23734;-74
2022/10/16 03:09:48;;;;;;;32.30;24.50;;;;;;;12.28;76.19;99064.50;85943;1290;100237;-74
2022/10/16 03:11:51;;;;;;;39.40;23.40;;;;;;;12.26;76.11;99064.42;85979;1291;22506;-73
2022/10/16 03:13:53;;;;;;;36.40;23.90;;;;;;;12.20;75.96;99062.11;85819;1285;22815;-74
2022/10/16 03:15:55;;;;;;;41.20;24.40;;;;;;;12.21;76.15;99067.70;85869;1290;99370;-74
2022/10/16 03:17:58;;;;;;;33.90;22.90;;;;;;;12.17;76.15;99063.48;86102;1284;22602;-74
2022/10/16 03:20:00;;;;;;;33.80;24.40;;;;;;;12.14;76.13;99068.08;85917;1290;23335;-75
2022/10/16 03:22:05;;;;;;;42.60;25.90;;;;;;;12.10;76.05;99061.95;86113;1288;99216;-75
2022/10/16 03:24:07;;;;;;;47.90;25.40;;;;;;;12.06;76.17;99065.86;85913;1289;24244;-73
2022/10/16 03:26:09;;;;;;;32.30;24.80;;;;;;;12.01;76.08;99073.34;86010;1297;23432;-75
2022/10/16 03:28:12;;;;;;;35.80;25.90;;;;;;;11.98;76.07;99076.66;86061;1283;99219;-75
2022/10/16 03:30:14;;;;;;;41.30;25.40;;;;;;;11.94;76.27;99080.90;86185;1287;24243;-75
2022/10/16 03:32:18;;;;;;;41.70;25.60;;;;;;;11.90;76.20;99081.79;86126;1283;22491;-75
2022/10/16 03:34:20;;;;;;;44.40;24.70;;;;;;;11.87;76.16;99087.22;85946;1287;99247;-74
2022/10/16 03:36:22;;;;;;;41.80;25.10;;;;;;;11.83;76.14;99089.36;86073;1289;26004;-73
2022/10/16 03:38:24;;;;;;;40.00;25.60;;;;;;;11.74;76.23;99086.14;86131;1283;22486;-76
2022/10/16 03:40:26;;;;;;;39.00;25.60;;;;;;;11.74;76.15;99097.20;85893;1290;100911;-74
2022/10/16 03:42:27;;;;;;;36.30;24.00;;;;;;;11.70;76.17;99103.94;85995;1290;22511;-76
2022/10/16 03:44:29;;;;;;;35.70;25.30;;;;;;;11.64;76.21;99105.80;86022;1283;25276;-74
2022/10/16 03:46:31;;;;;;;41.80;25.50;;;;;;;11.59;76.25;99106.95;85900;1293;99463;-74
2022/10/16 03:48:33;;;;;;;44.30;23.70;;;;;;;11.55;76.39;99108.39;86001;1291;22574;-73
2022/10/16 03:50:35;;;;;;;50.70;25.90;;;;;;;11.50;76.31;99114.42;85852;1283;232738;-74
2022/10/16 03:52:36;;;;;;;47.00;24.90;;;;;;;11.47;76.53;99116.20;85917;1280;98908;-75
2022/10/16 03:54:38;;;;;;;42.00;25.30;;;;;;;11.46;76.52;99119.61;86075;1288;22505;-73
2022/10/16 03:56:40;;;;;;;45.80;27.50;;;;;;;11.44;76.59;99118.44;86139;1287;25530;-74
2022/10/16 03:58:45;;;;;;;45.50;26.70;;;;;;;11.44;76.65;99119.48;85867;1292;99397;-74
2022/10/16 04:00:47;;;;;;;50.30;27.50;;;;;;;11.44;76.75;99116.31;86037;1283;22509;-74
2022/10/16 04:02:49;;;;;;;43.00;25.80;;;;;;;11.45;76.72;99115.77;85996;1289;22477;-74
2022/10/16 04:04:51;;;;;;;44.30;27.00;;;;;;;11.45;76.77;99117.15;86030;1290;98117;-75
2022/10/16 04:06:53;;;;;;;46.40;28.30;;;;;;;11.46;76.76;99117.45;86075;1291;24241;-74
2022/10/16 04:08:54;;;;;;;45.60;26.40;;;;;;;11.47;76.80;99121.30;85927;1286;23184;-74
2022/10/16 04:10:56;;;;;;;37.20;26.40;;;;;;;11.47;76.80;99125.15;85928;1283;99531;-73
2022/10/16 04:13:00;;;;;;;39.60;25.20;;;;;;;11.47;77.00;99124.98;85873;1291;26204;-74
2022/10/16 04:15:02;;;;;;;33.90;22.90;;;;;;;11.46;76.88;99125.92;86029;1283;22542;-74
2022/10/16 04:17:04;;;;;;;44.80;23.80;;;;;;;11.43;76.91;99124.45;85865;1283;99369;-74
2022/10/16 04:19:06;;;;;;;28.80;22.40;;;;;;;11.43;76.91;99127.14;86045;1287;22521;-74
2022/10/16 04:21:08;;;;;;;32.90;22.60;;;;;;;11.40;76.96;99129.73;86029;1284;24236;-75
2022/10/16 04:23:10;;;;;;;32.90;22.20;;;;;;;11.37;76.95;99126.36;85885;1283;99126;-75
2022/10/16 04:25:11;;;;;;;34.20;23.40;;;;;;;11.35;77.03;99126.64;85792;1289;22502;-75
2022/10/16 04:27:14;;;;;;;34.10;22.90;;;;;;;11.29;77.18;99118.81;86101;1282;24351;-74
2022/10/16 04:29:15;;;;;;;40.00;22.30;;;;;;;11.29;77.13;99126.88;85811;1290;99583;-74
2022/10/16 04:31:17;;;;;;;40.70;23.30;;;;;;;11.27;77.11;99127.55;85940;1288;26628;-74
2022/10/16 04:33:19;;;;;;;34.60;21.60;;;;;;;11.24;77.19;99128.17;86012;1291;23762;-74
2022/10/16 04:35:22;;;;;;;27.20;21.20;;;;;;;11.21;77.16;99130.27;85986;1283;99444;-74
2022/10/16 04:37:26;;;;;;;34.20;21.60;;;;;;;11.18;77.17;99130.77;85932;1291;22617;-75
2022/10/16 04:39:27;;;;;;;28.30;22.10;;;;;;;11.16;77.19;99129.09;85971;1283;24260;-74
2022/10/16 04:41:30;;;;;;;28.50;21.70;;;;;;;11.15;77.17;99128.46;85671;1292;100165;-74
2022/10/16 04:43:32;;;;;;;31.40;21.70;;;;;;;11.13;77.14;99130.30;85996;1283;22566;-74
2022/10/16 04:45:34;;;;;;;26.70;20.40;;;;;;;11.12;77.16;99131.80;86241;1291;24904;-73
2022/10/16 04:47:36;;;;;;;35.20;21.90;;;;;;;11.09;77.28;99131.38;86115;1284;99317;-74
2022/10/16 04:49:38;;;;;;;27.60;20.40;;;;;;;11.06;77.31;99133.60;86006;1285;22297;-73
2022/10/16 04:51:40;;;;;;;26.90;20.50;;;;;;;11.03;77.32;99138.50;85959;1283;22513;-75
2022/10/16 04:53:44;;;;;;;33.00;20.60;;;;;;;11.00;77.28;99137.77;86300;1289;98253;-73
2022/10/16 04:55:46;;;;;;;27.10;19.50;;;;;;;10.97;77.33;99138.09;86149;1291;22512;-74
2022/10/16 04:57:47;;;;;;;28.10;18.70;;;;;;;10.94;77.36;99139.83;85915;1283;100213;-74
2022/10/16 04:59:50;;;;;;;38.00;21.30;;;;;;;10.89;77.22;99137.23;85959;1290;22479;-75
2022/10/16 05:01:51;;;;;;;24.40;18.30;;;;;;;10.77;77.32;99124.97;86000;1291;22538;-74
2022/10/16 05:03:54;;;;;;;31.80;19.80;;;;;;;10.84;77.32;99144.15;86026;1283;99343;-74
2022/10/16 05:05:56;;;;;;;28.10;20.10;;;;;;;10.79;77.31;99145.27;86085;1290;22680;-75
2022/10/16 05:07:59;;;;;;;30.90;20.20;;;;;;;10.74;77.19;99142.52;85847;1286;23090;-74
2022/10/16 05:10:01;;;;;;;33.30;20.60;;;;;;;10.71;77.38;99142.83;85981;1286;100300;-74
2022/10/16 05:12:04;;;;;;;34.30;21.20;;;;;;;10.71;77.41;99144.74;85915;1291;25764;-73
2022/10/16 05:14:06;;;;;;;34.70;20.80;;;;;;;10.68;77.43;99149.09;86024;1284;25273;-74
2022/10/16 05:16:08;;;;;;;36.80;20.10;;;;;;;10.67;77.50;99147.05;85904;1291;99420;-74
2022/10/16 05:18:11;;;;;;;39.20;20.80;;;;;;;10.63;77.57;99142.13;85979;1299;23944;-74
2022/10/16 05:20:13;;;;;;;26.80;19.40;;;;;;;10.61;77.52;99140.66;85912;1291;22480;-74
2022/10/16 05:22:16;;;;;;;28.00;19.50;;;;;;;10.58;77.61;99136.21;85982;1283;99269;-74
2022/10/16 05:24:18;;;;;;;28.90;19.70;;;;;;;10.57;77.63;99147.00;86191;1284;25278;-74
2022/10/16 05:26:20;;;;;;;31.40;20.00;;;;;;;10.54;77.61;99145.53;85891;1291;22804;-73
2022/10/16 05:28:22;;;;;;;34.80;20.30;;;;;;;10.53;77.70;99151.17;85981;1289;99332;-75
2022/10/16 05:30:23;;;;;;;30.00;18.60;;;;;;;10.52;77.70;99149.48;85815;1284;22640;-74
2022/10/16 05:32:25;;;;;;;29.90;20.10;;;;;;;10.52;77.64;99157.37;85933;1290;22490;-75
2022/10/16 05:34:26;;;;;;;27.20;20.50;;;;;;;10.52;77.66;99162.14;85919;1288;99208;-75
2022/10/16 05:36:28;;;;;;;28.20;19.80;;;;;;;10.51;77.72;99158.30;85857;1289;22532;-74
2022/10/16 05:38:30;;;;;;;26.20;20.80;;;;;;;10.52;77.69;99158.79;85742;1291;25572;-74
2022/10/16 05:40:31;;;;;;;24.10;20.20;;;;;;;10.53;77.79;99157.69;85809;1290;99394;-74
2022/10/16 05:42:33;;;;;;;28.60;20.10;;;;;;;10.54;77.74;99156.27;85881;1291;22628;-75
2022/10/16 05:44:35;;;;;;;29.50;20.40;;;;;;;10.55;77.85;99151.29;85979;1284;22482;-74
2022/10/16 05:46:36;;;;;;;35.30;20.40;;;;;;;10.56;77.86;99156.69;85838;1283;100310;-74
2022/10/16 05:48:38;;;;;;;35.50;19.60;;;;;;;10.56;77.80;99157.73;85826;1281;22876;-73
2022/10/16 05:50:39;;;;;;;28.40;21.60;;;;;;;10.56;77.87;99161.60;85768;1283;25041;-74
2022/10/16 05:52:41;;;;;;;31.60;21.00;;;;;;;10.55;77.80;99158.15;85881;1284;99407;-74
2022/10/16 05:54:43;;;;;;;28.30;21.50;;;;;;;10.56;77.83;99161.77;85790;1283;25308;-74
2022/10/16 05:56:45;;;;;;;28.40;20.20;;;;;;;10.59;78.00;99162.50;85748;1284;22558;-74
2022/10/16 05:58:46;;;;;;;29.90;19.90;;;;;;;10.62;77.97;99163.27;85973;1287;99991;-74
2022/10/16 06:00:59;;;;;;;29.80;20.30;;;;;;;10.64;77.87;99161.42;85769;1283;25323;-75
2022/10/16 06:03:02;;;;;;;34.90;19.90;;;;;;;10.66;78.05;99163.05;85971;1291;22548;-75
2022/10/16 06:05:04;;;;;;;32.30;20.00;;;;;;;10.66;78.07;99162.88;85900;1283;102962;-75
2022/10/16 06:07:05;;;;;;;33.40;20.50;;;;;;;10.67;78.09;99159.69;85954;1284;25701;-75
2022/10/16 06:09:08;;;;;;;30.50;20.20;;;;;;;10.73;78.22;99172.27;85959;1283;22522;-75
2022/10/16 06:11:12;;;;;;;25.40;18.80;;;;;;;10.76;78.05;99179.86;85896;1291;98204;-74
2022/10/16 06:13:14;;;;;;;40.30;20.30;;;;;;;10.78;78.10;99183.63;86019;1281;22470;-75
2022/10/16 06:15:15;;;;;;;29.00;20.20;;;;;;;10.81;78.18;99185.95;86134;1288;23603;-74
2022/10/16 06:17:17;;;;;;;29.10;21.10;;;;;;;10.85;78.09;99188.60;85825;1280;99498;-74
2022/10/16 06:19:19;;;;;;;44.40;21.30;;;;;;;10.88;78.19;99192.84;85854;1283;22557;-74
2022/10/16 06:21:24;;;;;;;27.40;21.50;;;;;;;10.92;78.16;99191.45;85962;1289;22485;-74
2022/10/16 06:23:28;;;;;;;31.80;20.70;;;;;;;10.95;78.25;99199.01;85976;1282;99290;-74
2022/10/16 06:25:31;;;;;;;36.90;21.00;;;;;;;10.99;78.38;99198.50;86073;1284;22739;-75
2022/10/16 06:27:33;;;;;;;32.10;20.20;;;;;;;11.01;78.26;99200.31;85756;1291;25511;-74
2022/10/16 06:29:34;;;;;;;29.70;20.70;;;;;;;11.03;78.31;99207.60;85934;1284;98324;-76
2022/10/16 06:31:36;;;;;;;29.10;20.60;;;;;;;11.06;78.21;99212.04;86211;1282;22505;-75
2022/10/16 06:33:39;;;;;;;34.70;20.20;;;;;;;11.10;78.43;99212.08;86063;1286;23437;-74
2022/10/16 06:35:41;;;;;;;38.40;19.80;;;;;;;11.11;78.31;99212.36;85926;1286;98357;-75
2022/10/16 06:37:42;;;;;;;32.90;20.90;;;;;;;11.18;78.30;99223.30;85973;1283;22543;-74
2022/10/16 06:39:44;;;;;;;32.20;20.60;;;;;;;11.24;78.44;99224.95;86016;1281;22489;-74
2022/10/16 06:41:45;;;;;;;37.20;23.40;;;;;;;11.31;78.35;99228.48;85872;1283;98573;-73
2022/10/16 06:43:47;;;;;;;32.70;22.10;;;;;;;11.33;78.48;99230.14;86012;1284;22588;-74
2022/10/16 06:45:54;;;;;;;31.50;23.00;;;;;;;11.42;78.53;99237.30;86139;1281;22474;-75
2022/10/16 06:47:56;;;;;;;34.60;24.50;;;;;;;11.49;78.31;99240.34;86012;1284;22499;-74
2022/10/16 06:50:00;;;;;;;34.60;24.50;;;;;;;11.55;78.44;99241.96;85902;1290;24245;-82
2022/10/16 06:52:02;;;;;;;38.10;24.20;;;;;;;11.62;78.42;99246.03;85962;1283;99592;-81
2022/10/16 06:54:07;;;;;;;34.10;24.00;;;;;;;11.68;78.22;99250.11;86204;1288;22622;-75
2022/10/16 06:56:10;;;;;;;39.90;24.30;;;;;;;11.75;78.40;99253.13;85822;1288;24272;-74
2022/10/16 06:58:12;;;;;;;36.90;23.90;;;;;;;11.83;78.34;99255.27;85862;1288;99807;-75
2022/10/16 07:00:13;;;;;;;41.50;24.70;;;;;;;11.91;78.47;99251.50;85973;1284;24287;-74
2022/10/16 07:02:15;;;;;;;35.90;23.50;;;;;;;11.97;78.55;99250.35;86120;1290;26531;-75
2022/10/16 07:04:17;;;;;;;34.40;23.60;;;;;;;12.04;78.53;99251.95;86039;1290;98202;-74
2022/10/16 07:06:20;;;;;;;40.60;22.20;;;;;;;12.11;78.37;99250.55;85789;1290;22686;-77
2022/10/16 07:08:25;;;;;;;34.00;22.70;;;;;;;12.18;78.43;99252.14;86158;1291;27954;-76
2022/10/16 07:10:27;;;;;;;42.70;23.20;;;;;;;12.24;78.34;99252.85;85904;1290;99280;-74
2022/10/16 07:12:29;;;;;;;35.70;22.10;;;;;;;12.31;78.37;99254.29;85923;1284;28891;-75
2022/10/16 07:14:30;;;;;;;36.00;24.50;;;;;;;12.38;78.27;99256.55;86004;1283;22987;-75
2022/10/16 07:16:32;;;;;;;44.60;25.10;;;;;;;12.45;78.29;99255.14;85819;1288;98164;-74
2022/10/16 07:18:34;;;;;;;34.40;23.40;;;;;;;12.52;78.19;99259.91;86076;1283;23408;-75
2022/10/16 07:20:37;;;;;;;41.60;24.40;;;;;;;12.59;78.24;99259.91;86106;1283;22525;-75
2022/10/16 07:22:39;;;;;;;37.90;24.30;;;;;;;12.66;78.11;99266.27;85993;1290;99159;-75
2022/10/16 07:24:40;;;;;;;38.90;24.60;;;;;;;12.72;78.06;99266.08;85951;1297;26592;-75
2022/10/16 07:26:44;;;;;;;44.00;22.50;;;;;;;12.79;78.03;99265.57;85922;1291;22607;-75
2022/10/16 07:28:46;;;;;;;33.10;21.90;;;;;;;12.87;77.97;99264.99;86064;1283;99585;-75
2022/10/16 07:30:48;;;;;;;39.60;21.40;;;;;;;12.94;77.91;99261.80;86157;1283;22476;-73
2022/10/16 07:32:50;;;;;;;31.50;20.00;;;;;;;13.01;77.91;99263.37;86277;1290;22457;-75
2022/10/16 07:34:53;;;;;;;27.80;19.90;;;;;;;13.07;77.71;99263.23;85813;1300;98117;-74
2022/10/16 07:36:54;;;;;;;32.80;19.50;;;;;;;13.13;77.73;99264.80;85982;1291;22540;-74
2022/10/16 07:38:56;;;;;;;42.30;19.50;;;;;;;13.21;77.80;99260.54;85937;1297;22544;-75
2022/10/16 07:40:59;;;;;;;30.50;18.40;;;;;;;13.29;77.68;99260.10;85728;1286;99845;-75
2022/10/16 07:43:02;;;;;;;30.70;19.30;;;;;;;13.35;77.90;99260.81;86019;1291;24275;-76
2022/10/16 07:45:07;;;;;;;29.10;19.30;;;;;;;13.41;77.69;99261.05;85692;1286;22684;-75
2022/10/16 07:47:08;;;;;;;25.80;18.40;;;;;;;13.47;77.62;99262.49;86555;1280;99331;-75
2022/10/16 07:49:11;;;;;;;24.10;18.50;;;;;;;13.51;77.55;99265.99;85994;1287;22577;-76
2022/10/16 07:51:19;;;;;;;26.50;17.70;;;;;;;13.55;77.46;99266.47;85751;1283;22558;-75
2022/10/16 07:53:21;;;;;;;21.80;16.70;;;;;;;13.58;77.43;99265.92;86003;1288;98120;-75
2022/10/16 07:55:23;;;;;;;24.10;16.00;;;;;;;13.62;77.32;99265.88;86036;1287;22490;-73
2022/10/16 07:57:25;;;;;;;28.40;17.10;;;;;;;13.67;77.48;99266.67;85749;1286;22693;-75
2022/10/16 07:59:26;;;;;;;25.70;16.60;;;;;;;13.71;77.25;99269.61;85894;1283;98910;-75
2022/10/16 08:01:28;;;;;;;24.40;15.90;;;;;;;13.76;77.26;99271.08;85848;1286;22795;-74
2022/10/16 08:03:30;;;;;;;26.30;16.20;;;;;;;13.81;76.95;99271.89;86162;1288;22470;-75
2022/10/16 08:05:33;;;;;;;21.20;15.10;;;;;;;13.87;77.07;99272.80;85820;1283;99705;-75
2022/10/16 08:07:35;;;;;;;21.20;14.50;;;;;;;13.93;77.26;99279.70;85935;1291;22484;-74
2022/10/16 08:09:37;;;;;;;29.90;15.00;;;;;;;13.99;76.92;99276.50;85984;1283;22636;-75
2022/10/16 08:11:38;;;;;;;22.10;13.80;;;;;;;14.07;76.89;99279.05;85977;1283;99348;-75
2022/10/16 08:13:40;;;;;;;17.30;12.80;;;;;;;14.14;76.59;99276.90;85963;1290;24087;-75
2022/10/16 08:15:43;;;;;;;20.50;12.40;;;;;;;14.21;76.67;99280.77;85963;1283;22533;-74
2022/10/16 08:17:53;;;;;;;18.70;10.80;;;;;;;14.27;76.37;99280.73;85900;1283;98949;-75
2022/10/16 08:19:55;;;;;;;17.00;11.10;;;;;;;14.34;76.29;99279.65;85901;1283;22461;-75
2022/10/16 08:21:56;;;;;;;17.00;12.20;;;;;;;14.39;76.28;99285.16;85850;1283;99703;-75
2022/10/16 08:23:58;;;;;;;16.60;11.10;;;;;;;14.48;76.38;99283.59;86245;1288;23105;-74
2022/10/16 08:26:05;;;;;;;20.30;10.60;;;;;;;14.57;76.36;99286.23;85951;1284;22488;-75
2022/10/16 08:28:10;;;;;;;16.70;11.20;;;;;;;14.64;76.16;99288.68;85966;1291;99756;-74
2022/10/16 08:30:12;;;;;;;17.90;10.60;;;;;;;14.71;76.20;99285.78;85965;1284;25433;-75
2022/10/16 08:32:14;;;;;;;18.10;11.50;;;;;;;14.78;76.10;99285.34;86031;1283;25615;-75
2022/10/16 08:34:15;;;;;;;12.60;11.40;;;;;;;14.85;75.96;99288.29;85741;1283;99545;-74
2022/10/16 08:36:17;;;;;;;17.50;12.60;;;;;;;14.90;75.92;99287.50;85837;1292;22503;-75
2022/10/16 08:38:19;;;;;;;24.50;12.50;;;;;;;14.95;75.86;99288.34;85967;1289;22487;-74
2022/10/16 08:40:25;;;;;;;16.80;11.40;;;;;;;15.07;76.03;99290.29;85948;1289;99823;-75
2022/10/16 08:42:30;;;;;;;21.40;11.20;;;;;;;15.27;76.02;99294.44;85988;1287;22522;-75
2022/10/16 08:44:41;;;;;;;20.20;11.80;;;;;;;15.54;76.12;99290.41;85968;1286;24565;-76
2022/10/16 08:46:51;;;;;;;;;;;;;;;15.76;75.69;99292.89;86381;1286;98726;-75
2022/10/16 08:48:56;;;;;;;15.70;12.20;;;;;;;15.93;75.56;99293.80;86000;1289;23202;-75
2022/10/16 08:51:01;;;;;;;12.70;10.70;;;;;;;16.21;75.66;99296.34;86008;1283;22509;-75
2022/10/16 08:53:05;;;;;;;14.40;9.60;;;;;;;16.44;75.48;99295.89;85870;1283;99818;-75
2022/10/16 08:55:22;;;;;;;20.40;9.50;;;;;;;16.69;75.48;99297.06;85854;1282;22480;-75
2022/10/16 08:57:26;;;;;;;18.10;10.30;;;;;;;16.91;75.24;99296.45;85942;1287;22505;-77
2022/10/16 08:59:28;;;;;;;10.40;9.30;;;;;;;17.02;74.85;99299.60;86205;1280;98171;-75
2022/10/16 09:01:49;;;;;;;15.80;10.80;;;;;;;17.08;74.71;99295.80;85917;1289;24255;-76
2022/10/16 09:04:22;;;;;;;13.50;9.70;;;;;;;17.19;74.55;99298.41;85913;1291;26518;-76
2022/10/16 09:06:33;;;;;;;11.90;9.50;;;;;;;17.26;74.45;99299.03;86178;1281;22483;-76
2022/10/16 09:08:55;;;;;;;;;;;;;;;17.32;74.29;99300.89;86144;1289;22715;-76
2022/10/16 09:10:56;;;;;;;12.20;9.70;;;;;;;17.36;74.14;99303.66;86044;1288;85307;-75
2022/10/16 09:13:23;;;;;;;14.20;9.30;;;;;;;17.40;74.23;99304.44;86104;1281;22749;-76
2022/10/16 09:15:39;;;;;;;11.50;8.90;;;;;;;17.45;74.05;99304.06;85939;1284;22724;-76
2022/10/16 09:17:59;;;;;;;11.00;8.70;;;;;;;17.49;73.96;99304.82;86110;1284;98673;-77
2022/10/16 09:20:23;;;;;;;9.60;8.30;;;;;;;17.52;73.85;99308.34;86187;1289;22487;-75
2022/10/16 09:22:28;;;;;;;15.30;9.30;;;;;;;17.52;73.66;99312.41;86250;1287;98385;-76
2022/10/16 09:24:30;;;;;;;8.30;7.20;;;;;;;17.56;73.68;99313.60;86351;1291;22490;-76
2022/10/16 09:26:32;;;;;;;9.20;8.20;;;;;;;17.62;73.49;99311.58;86399;1289;22543;-76
2022/10/16 09:28:33;;;;;;;10.90;7.40;;;;;;;17.70;73.47;99309.58;86086;1292;98001;-77
2022/10/16 09:30:38;;;;;;;11.00;8.20;;;;;;;17.78;73.34;99309.67;86300;1289;22656;-75
2022/10/16 09:32:47;;;;;;;10.10;8.20;;;;;;;17.84;73.24;99304.95;86393;1291;22523;-74